sensor_id;sensor_type;location;lat;lon;timestamp;P1;durP1;ratioP1;P2;durP2;ratioP2
5684;SDS011;2865;53.114;9.130;2023-06-14T00:00:35;3.40;;;2.43;;
5684;SDS011;2865;53.114;9.130;2023-06-14T00:03:00;3.93;;;2.97;;
5684;SDS011;2865;53.114;9.130;2023-06-14T00:05:25;4.50;;;2.47;;
5684;SDS011;2865;53.114;9.130;2023-06-14T00:07:51;5.03;;;2.70;;
5684;SDS011;2865;53.114;9.130;2023-06-14T00:10:16;2.50;;;2.30;;
5684;SDS011;2865;53.114;9.130;2023-06-14T00:12:41;3.20;;;2.80;;
5684;SDS011;2865;53.114;9.130;2023-06-14T00:15:07;2.70;;;2.50;;
5684;SDS011;2865;53.114;9.130;2023-06-14T00:17:33;3.97;;;2.70;;
5684;SDS011;2865;53.114;9.130;2023-06-14T00:19:58;3.00;;;2.23;;
5684;SDS011;2865;53.114;9.130;2023-06-14T00:22:24;6.67;;;2.33;;
5684;SDS011;2865;53.114;9.130;2023-06-14T00:24:49;2.43;;;2.23;;
5684;SDS011;2865;53.114;9.130;2023-06-14T00:27:15;3.30;;;2.60;;
5684;SDS011;2865;53.114;9.130;2023-06-14T00:29:41;4.00;;;2.93;;
5684;SDS011;2865;53.114;9.130;2023-06-14T00:32:06;2.70;;;2.50;;
5684;SDS011;2865;53.114;9.130;2023-06-14T00:34:32;6.27;;;2.67;;
5684;SDS011;2865;53.114;9.130;2023-06-14T00:36:58;4.37;;;2.50;;
5684;SDS011;2865;53.114;9.130;2023-06-14T00:39:23;4.27;;;2.70;;
5684;SDS011;2865;53.114;9.130;2023-06-14T00:41:48;3.37;;;2.40;;
5684;SDS011;2865;53.114;9.130;2023-06-14T00:44:14;5.93;;;2.67;;
5684;SDS011;2865;53.114;9.130;2023-06-14T00:46:39;3.70;;;3.00;;
5684;SDS011;2865;53.114;9.130;2023-06-14T00:49:04;10.37;;;2.73;;
5684;SDS011;2865;53.114;9.130;2023-06-14T00:51:30;4.30;;;2.47;;
5684;SDS011;2865;53.114;9.130;2023-06-14T00:53:55;2.70;;;2.50;;
5684;SDS011;2865;53.114;9.130;2023-06-14T00:56:21;2.70;;;2.50;;
5684;SDS011;2865;53.114;9.130;2023-06-14T00:58:46;3.97;;;2.30;;
5684;SDS011;2865;53.114;9.130;2023-06-14T01:01:12;3.20;;;2.87;;
5684;SDS011;2865;53.114;9.130;2023-06-14T01:03:37;3.17;;;2.87;;
5684;SDS011;2865;53.114;9.130;2023-06-14T01:06:15;4.37;;;2.80;;
5684;SDS011;2865;53.114;9.130;2023-06-14T01:08:47;9.50;;;3.20;;
5684;SDS011;2865;53.114;9.130;2023-06-14T01:11:12;4.70;;;3.10;;
5684;SDS011;2865;53.114;9.130;2023-06-14T01:13:37;3.33;;;2.93;;
5684;SDS011;2865;53.114;9.130;2023-06-14T01:16:02;8.00;;;3.10;;
5684;SDS011;2865;53.114;9.130;2023-06-14T01:18:28;3.00;;;2.33;;
5684;SDS011;2865;53.114;9.130;2023-06-14T01:20:53;4.00;;;2.93;;
5684;SDS011;2865;53.114;9.130;2023-06-14T01:23:20;8.60;;;2.60;;
5684;SDS011;2865;53.114;9.130;2023-06-14T01:25:44;7.27;;;3.57;;
5684;SDS011;2865;53.114;9.130;2023-06-14T01:28:10;4.70;;;3.03;;
5684;SDS011;2865;53.114;9.130;2023-06-14T01:30:36;13.93;;;3.07;;
5684;SDS011;2865;53.114;9.130;2023-06-14T01:33:01;7.27;;;3.70;;
5684;SDS011;2865;53.114;9.130;2023-06-14T01:35:26;3.27;;;2.97;;
5684;SDS011;2865;53.114;9.130;2023-06-14T01:37:52;4.83;;;2.77;;
5684;SDS011;2865;53.114;9.130;2023-06-14T01:40:17;3.73;;;2.67;;
5684;SDS011;2865;53.114;9.130;2023-06-14T01:42:43;4.07;;;3.20;;
5684;SDS011;2865;53.114;9.130;2023-06-14T01:45:08;3.50;;;3.00;;
5684;SDS011;2865;53.114;9.130;2023-06-14T01:47:34;4.00;;;2.93;;
5684;SDS011;2865;53.114;9.130;2023-06-14T01:49:59;8.40;;;3.00;;
5684;SDS011;2865;53.114;9.130;2023-06-14T01:52:24;3.83;;;3.50;;
5684;SDS011;2865;53.114;9.130;2023-06-14T01:54:50;4.40;;;3.40;;
5684;SDS011;2865;53.114;9.130;2023-06-14T01:57:15;4.13;;;3.20;;
5684;SDS011;2865;53.114;9.130;2023-06-14T01:59:41;4.30;;;3.50;;
5684;SDS011;2865;53.114;9.130;2023-06-14T02:02:06;9.27;;;3.23;;
5684;SDS011;2865;53.114;9.130;2023-06-14T02:04:32;5.93;;;2.90;;
5684;SDS011;2865;53.114;9.130;2023-06-14T02:06:57;7.93;;;3.60;;
5684;SDS011;2865;53.114;9.130;2023-06-14T02:09:22;4.57;;;3.40;;
5684;SDS011;2865;53.114;9.130;2023-06-14T02:11:48;7.13;;;4.13;;
5684;SDS011;2865;53.114;9.130;2023-06-14T02:14:13;3.80;;;3.17;;
5684;SDS011;2865;53.114;9.130;2023-06-14T02:16:39;11.30;;;3.20;;
5684;SDS011;2865;53.114;9.130;2023-06-14T02:19:05;5.63;;;3.17;;
5684;SDS011;2865;53.114;9.130;2023-06-14T02:21:30;12.63;;;3.50;;
5684;SDS011;2865;53.114;9.130;2023-06-14T02:23:55;6.97;;;3.80;;
5684;SDS011;2865;53.114;9.130;2023-06-14T02:26:20;5.13;;;3.20;;
5684;SDS011;2865;53.114;9.130;2023-06-14T02:28:46;6.20;;;4.07;;
5684;SDS011;2865;53.114;9.130;2023-06-14T02:31:11;3.50;;;3.20;;
5684;SDS011;2865;53.114;9.130;2023-06-14T02:33:36;6.33;;;4.40;;
5684;SDS011;2865;53.114;9.130;2023-06-14T02:36:02;3.53;;;3.23;;
5684;SDS011;2865;53.114;9.130;2023-06-14T02:38:28;8.10;;;3.87;;
5684;SDS011;2865;53.114;9.130;2023-06-14T02:40:53;6.90;;;3.73;;
5684;SDS011;2865;53.114;9.130;2023-06-14T02:43:18;5.93;;;4.03;;
5684;SDS011;2865;53.114;9.130;2023-06-14T02:45:44;3.80;;;3.40;;
5684;SDS011;2865;53.114;9.130;2023-06-14T02:48:09;5.20;;;4.00;;
5684;SDS011;2865;53.114;9.130;2023-06-14T02:50:34;5.97;;;3.17;;
5684;SDS011;2865;53.114;9.130;2023-06-14T02:53:00;3.77;;;3.30;;
5684;SDS011;2865;53.114;9.130;2023-06-14T02:55:25;3.43;;;3.13;;
5684;SDS011;2865;53.114;9.130;2023-06-14T02:57:51;4.63;;;3.50;;
5684;SDS011;2865;53.114;9.130;2023-06-14T03:00:17;7.90;;;3.77;;
5684;SDS011;2865;53.114;9.130;2023-06-14T03:02:42;4.10;;;3.70;;
5684;SDS011;2865;53.114;9.130;2023-06-14T03:05:08;4.40;;;3.50;;
5684;SDS011;2865;53.114;9.130;2023-06-14T03:07:33;4.53;;;3.37;;
5684;SDS011;2865;53.114;9.130;2023-06-14T03:09:59;6.00;;;3.53;;
5684;SDS011;2865;53.114;9.130;2023-06-14T03:12:24;4.50;;;3.33;;
5684;SDS011;2865;53.114;9.130;2023-06-14T03:14:50;14.73;;;3.87;;
5684;SDS011;2865;53.114;9.130;2023-06-14T03:17:15;13.10;;;3.33;;
5684;SDS011;2865;53.114;9.130;2023-06-14T03:19:40;5.00;;;3.17;;
5684;SDS011;2865;53.114;9.130;2023-06-14T03:22:06;3.33;;;3.00;;
5684;SDS011;2865;53.114;9.130;2023-06-14T03:24:31;13.23;;;3.63;;
5684;SDS011;2865;53.114;9.130;2023-06-14T03:26:57;4.57;;;3.00;;
5684;SDS011;2865;53.114;9.130;2023-06-14T03:29:22;6.00;;;3.23;;
5684;SDS011;2865;53.114;9.130;2023-06-14T03:34:21;4.07;;;3.03;;
5684;SDS011;2865;53.114;9.130;2023-06-14T03:36:46;5.10;;;3.53;;
5684;SDS011;2865;53.114;9.130;2023-06-14T03:39:12;4.00;;;3.37;;
5684;SDS011;2865;53.114;9.130;2023-06-14T03:41:37;6.03;;;3.33;;
5684;SDS011;2865;53.114;9.130;2023-06-14T03:44:02;6.60;;;3.80;;
5684;SDS011;2865;53.114;9.130;2023-06-14T03:46:28;8.60;;;3.20;;
5684;SDS011;2865;53.114;9.130;2023-06-14T03:48:53;5.57;;;3.50;;
5684;SDS011;2865;53.114;9.130;2023-06-14T03:51:19;3.90;;;3.10;;
5684;SDS011;2865;53.114;9.130;2023-06-14T03:53:44;5.27;;;3.77;;
5684;SDS011;2865;53.114;9.130;2023-06-14T03:56:10;5.87;;;3.93;;
5684;SDS011;2865;53.114;9.130;2023-06-14T03:58:35;3.80;;;2.93;;
5684;SDS011;2865;53.114;9.130;2023-06-14T04:01:00;6.10;;;3.60;;
5684;SDS011;2865;53.114;9.130;2023-06-14T04:03:26;4.63;;;3.53;;
5684;SDS011;2865;53.114;9.130;2023-06-14T04:05:51;4.93;;;3.57;;
5684;SDS011;2865;53.114;9.130;2023-06-14T04:08:17;7.20;;;3.47;;
5684;SDS011;2865;53.114;9.130;2023-06-14T04:10:42;4.27;;;3.57;;
5684;SDS011;2865;53.114;9.130;2023-06-14T04:13:08;5.00;;;4.03;;
5684;SDS011;2865;53.114;9.130;2023-06-14T04:15:33;4.63;;;3.00;;
5684;SDS011;2865;53.114;9.130;2023-06-14T04:17:58;3.60;;;3.30;;
5684;SDS011;2865;53.114;9.130;2023-06-14T04:20:24;7.07;;;3.10;;
5684;SDS011;2865;53.114;9.130;2023-06-14T04:22:49;5.00;;;3.90;;
5684;SDS011;2865;53.114;9.130;2023-06-14T04:25:14;4.00;;;3.60;;
5684;SDS011;2865;53.114;9.130;2023-06-14T04:27:40;6.13;;;3.97;;
5684;SDS011;2865;53.114;9.130;2023-06-14T04:30:06;11.20;;;4.27;;
5684;SDS011;2865;53.114;9.130;2023-06-14T04:32:32;9.00;;;4.13;;
5684;SDS011;2865;53.114;9.130;2023-06-14T04:34:57;4.10;;;3.27;;
5684;SDS011;2865;53.114;9.130;2023-06-14T04:37:23;5.10;;;4.03;;
5684;SDS011;2865;53.114;9.130;2023-06-14T04:39:48;4.30;;;3.80;;
5684;SDS011;2865;53.114;9.130;2023-06-14T04:42:13;6.83;;;3.40;;
5684;SDS011;2865;53.114;9.130;2023-06-14T04:44:39;4.43;;;3.70;;
5684;SDS011;2865;53.114;9.130;2023-06-14T04:47:04;5.13;;;3.97;;
5684;SDS011;2865;53.114;9.130;2023-06-14T04:49:30;4.30;;;3.20;;
5684;SDS011;2865;53.114;9.130;2023-06-14T04:51:56;5.50;;;4.00;;
5684;SDS011;2865;53.114;9.130;2023-06-14T04:54:21;6.17;;;3.40;;
5684;SDS011;2865;53.114;9.130;2023-06-14T04:56:46;5.53;;;3.70;;
5684;SDS011;2865;53.114;9.130;2023-06-14T04:59:12;6.07;;;3.53;;
5684;SDS011;2865;53.114;9.130;2023-06-14T05:01:37;4.57;;;3.57;;
5684;SDS011;2865;53.114;9.130;2023-06-14T05:04:02;4.67;;;4.17;;
5684;SDS011;2865;53.114;9.130;2023-06-14T05:06:28;3.40;;;3.13;;
5684;SDS011;2865;53.114;9.130;2023-06-14T05:08:54;4.33;;;3.60;;
5684;SDS011;2865;53.114;9.130;2023-06-14T05:11:19;10.90;;;4.20;;
5684;SDS011;2865;53.114;9.130;2023-06-14T05:13:44;4.40;;;3.50;;
5684;SDS011;2865;53.114;9.130;2023-06-14T05:16:11;6.33;;;3.60;;
5684;SDS011;2865;53.114;9.130;2023-06-14T05:18:36;4.33;;;3.40;;
5684;SDS011;2865;53.114;9.130;2023-06-14T05:21:01;3.47;;;3.27;;
5684;SDS011;2865;53.114;9.130;2023-06-14T05:23:27;6.80;;;3.40;;
5684;SDS011;2865;53.114;9.130;2023-06-14T05:25:52;5.27;;;3.57;;
5684;SDS011;2865;53.114;9.130;2023-06-14T05:28:18;5.13;;;3.50;;
5684;SDS011;2865;53.114;9.130;2023-06-14T05:30:43;6.83;;;3.60;;
5684;SDS011;2865;53.114;9.130;2023-06-14T05:33:08;5.33;;;3.37;;
5684;SDS011;2865;53.114;9.130;2023-06-14T05:35:34;6.10;;;3.30;;
5684;SDS011;2865;53.114;9.130;2023-06-14T05:37:59;3.17;;;2.87;;
5684;SDS011;2865;53.114;9.130;2023-06-14T05:40:25;3.10;;;2.80;;
5684;SDS011;2865;53.114;9.130;2023-06-14T05:42:50;3.30;;;3.00;;
5684;SDS011;2865;53.114;9.130;2023-06-14T05:45:15;5.33;;;3.60;;
5684;SDS011;2865;53.114;9.130;2023-06-14T05:47:41;5.87;;;3.20;;
5684;SDS011;2865;53.114;9.130;2023-06-14T05:50:07;4.90;;;3.10;;
5684;SDS011;2865;53.114;9.130;2023-06-14T05:52:33;4.93;;;3.70;;
5684;SDS011;2865;53.114;9.130;2023-06-14T05:54:58;6.10;;;3.10;;
5684;SDS011;2865;53.114;9.130;2023-06-14T05:57:24;3.63;;;3.27;;
5684;SDS011;2865;53.114;9.130;2023-06-14T05:59:49;5.93;;;2.87;;
5684;SDS011;2865;53.114;9.130;2023-06-14T06:02:14;3.70;;;3.13;;
5684;SDS011;2865;53.114;9.130;2023-06-14T06:04:40;4.97;;;3.47;;
5684;SDS011;2865;53.114;9.130;2023-06-14T06:07:05;4.20;;;3.57;;
5684;SDS011;2865;53.114;9.130;2023-06-14T06:09:31;9.00;;;2.90;;
5684;SDS011;2865;53.114;9.130;2023-06-14T06:11:56;3.03;;;2.63;;
5684;SDS011;2865;53.114;9.130;2023-06-14T06:14:22;3.43;;;2.90;;
5684;SDS011;2865;53.114;9.130;2023-06-14T06:16:47;5.40;;;3.17;;
5684;SDS011;2865;53.114;9.130;2023-06-14T06:19:12;4.17;;;3.20;;
5684;SDS011;2865;53.114;9.130;2023-06-14T06:21:38;7.23;;;2.83;;
5684;SDS011;2865;53.114;9.130;2023-06-14T06:24:04;6.20;;;3.17;;
5684;SDS011;2865;53.114;9.130;2023-06-14T06:26:30;3.97;;;3.67;;
5684;SDS011;2865;53.114;9.130;2023-06-14T06:28:55;3.40;;;2.80;;
5684;SDS011;2865;53.114;9.130;2023-06-14T06:31:21;2.97;;;2.70;;
5684;SDS011;2865;53.114;9.130;2023-06-14T06:33:46;3.27;;;2.93;;
5684;SDS011;2865;53.114;9.130;2023-06-14T06:36:11;3.43;;;2.67;;
5684;SDS011;2865;53.114;9.130;2023-06-14T06:38:37;3.83;;;2.63;;
5684;SDS011;2865;53.114;9.130;2023-06-14T06:41:02;3.43;;;2.73;;
5684;SDS011;2865;53.114;9.130;2023-06-14T06:43:27;2.53;;;2.33;;
5684;SDS011;2865;53.114;9.130;2023-06-14T06:45:53;3.40;;;3.00;;
5684;SDS011;2865;53.114;9.130;2023-06-14T06:48:18;3.83;;;2.60;;
5684;SDS011;2865;53.114;9.130;2023-06-14T06:50:44;4.60;;;2.30;;
5684;SDS011;2865;53.114;9.130;2023-06-14T06:53:09;2.70;;;2.50;;
5684;SDS011;2865;53.114;9.130;2023-06-14T06:55:34;3.63;;;2.13;;
5684;SDS011;2865;53.114;9.130;2023-06-14T06:58:00;2.57;;;2.37;;
5684;SDS011;2865;53.114;9.130;2023-06-14T07:00:25;2.97;;;2.67;;
5684;SDS011;2865;53.114;9.130;2023-06-14T07:02:51;2.53;;;2.27;;
5684;SDS011;2865;53.114;9.130;2023-06-14T07:05:17;3.20;;;2.20;;
5684;SDS011;2865;53.114;9.130;2023-06-14T07:07:42;3.23;;;2.10;;
5684;SDS011;2865;53.114;9.130;2023-06-14T07:10:07;3.27;;;2.47;;
5684;SDS011;2865;53.114;9.130;2023-06-14T07:12:33;2.60;;;2.40;;
5684;SDS011;2865;53.114;9.130;2023-06-14T07:14:58;3.30;;;2.30;;
5684;SDS011;2865;53.114;9.130;2023-06-14T07:17:24;3.10;;;2.30;;
5684;SDS011;2865;53.114;9.130;2023-06-14T07:19:49;4.10;;;2.47;;
5684;SDS011;2865;53.114;9.130;2023-06-14T07:22:14;5.20;;;2.40;;
5684;SDS011;2865;53.114;9.130;2023-06-14T07:24:40;4.67;;;2.77;;
5684;SDS011;2865;53.114;9.130;2023-06-14T07:27:05;2.37;;;2.17;;
5684;SDS011;2865;53.114;9.130;2023-06-14T07:29:30;2.20;;;2.10;;
5684;SDS011;2865;53.114;9.130;2023-06-14T07:31:56;7.80;;;2.37;;
5684;SDS011;2865;53.114;9.130;2023-06-14T07:34:22;2.47;;;2.13;;
5684;SDS011;2865;53.114;9.130;2023-06-14T07:36:47;3.50;;;2.50;;
5684;SDS011;2865;53.114;9.130;2023-06-14T07:39:12;5.10;;;2.10;;
5684;SDS011;2865;53.114;9.130;2023-06-14T07:41:38;2.13;;;2.00;;
5684;SDS011;2865;53.114;9.130;2023-06-14T07:44:03;3.00;;;2.37;;
5684;SDS011;2865;53.114;9.130;2023-06-14T07:46:28;2.10;;;2.00;;
5684;SDS011;2865;53.114;9.130;2023-06-14T07:48:54;2.57;;;2.37;;
5684;SDS011;2865;53.114;9.130;2023-06-14T07:51:19;5.63;;;2.20;;
5684;SDS011;2865;53.114;9.130;2023-06-14T07:53:45;3.27;;;2.37;;
5684;SDS011;2865;53.114;9.130;2023-06-14T07:56:10;3.10;;;2.43;;
5684;SDS011;2865;53.114;9.130;2023-06-14T07:58:35;3.40;;;1.80;;
5684;SDS011;2865;53.114;9.130;2023-06-14T08:01:01;2.30;;;2.10;;
5684;SDS011;2865;53.114;9.130;2023-06-14T08:03:26;4.90;;;2.17;;
5684;SDS011;2865;53.114;9.130;2023-06-14T08:05:52;3.53;;;2.23;;
5684;SDS011;2865;53.114;9.130;2023-06-14T08:08:17;2.73;;;2.53;;
5684;SDS011;2865;53.114;9.130;2023-06-14T08:10:42;2.23;;;2.10;;
5684;SDS011;2865;53.114;9.130;2023-06-14T08:13:08;2.80;;;2.60;;
5684;SDS011;2865;53.114;9.130;2023-06-14T08:15:33;2.10;;;2.00;;
5684;SDS011;2865;53.114;9.130;2023-06-14T08:17:59;6.30;;;2.03;;
5684;SDS011;2865;53.114;9.130;2023-06-14T08:20:24;2.33;;;1.83;;
5684;SDS011;2865;53.114;9.130;2023-06-14T08:22:49;2.37;;;2.17;;
5684;SDS011;2865;53.114;9.130;2023-06-14T08:25:15;2.10;;;2.00;;
5684;SDS011;2865;53.114;9.130;2023-06-14T08:27:40;2.40;;;1.97;;
5684;SDS011;2865;53.114;9.130;2023-06-14T08:30:06;5.33;;;2.30;;
5684;SDS011;2865;53.114;9.130;2023-06-14T08:32:32;2.10;;;1.90;;
5684;SDS011;2865;53.114;9.130;2023-06-14T08:34:57;1.93;;;1.70;;
5684;SDS011;2865;53.114;9.130;2023-06-14T08:37:23;2.93;;;1.90;;
5684;SDS011;2865;53.114;9.130;2023-06-14T08:39:49;5.00;;;2.43;;
5684;SDS011;2865;53.114;9.130;2023-06-14T08:42:14;18.70;;;2.47;;
5684;SDS011;2865;53.114;9.130;2023-06-14T08:44:39;3.43;;;2.60;;
5684;SDS011;2865;53.114;9.130;2023-06-14T08:47:05;2.50;;;2.07;;
5684;SDS011;2865;53.114;9.130;2023-06-14T08:49:30;2.23;;;2.03;;
5684;SDS011;2865;53.114;9.130;2023-06-14T08:51:57;2.03;;;1.87;;
5684;SDS011;2865;53.114;9.130;2023-06-14T08:54:21;2.10;;;2.00;;
5684;SDS011;2865;53.114;9.130;2023-06-14T08:56:46;2.37;;;2.20;;
5684;SDS011;2865;53.114;9.130;2023-06-14T08:59:12;2.07;;;1.80;;
5684;SDS011;2865;53.114;9.130;2023-06-14T09:01:37;2.40;;;2.20;;
5684;SDS011;2865;53.114;9.130;2023-06-14T09:04:03;6.77;;;2.87;;
5684;SDS011;2865;53.114;9.130;2023-06-14T09:06:28;3.27;;;2.17;;
5684;SDS011;2865;53.114;9.130;2023-06-14T09:08:54;4.60;;;1.77;;
5684;SDS011;2865;53.114;9.130;2023-06-14T09:11:19;4.43;;;2.17;;
5684;SDS011;2865;53.114;9.130;2023-06-14T09:13:45;2.80;;;2.10;;
5684;SDS011;2865;53.114;9.130;2023-06-14T09:16:11;4.80;;;2.30;;
5684;SDS011;2865;53.114;9.130;2023-06-14T09:18:37;2.07;;;1.87;;
5684;SDS011;2865;53.114;9.130;2023-06-14T09:21:01;2.97;;;2.20;;
5684;SDS011;2865;53.114;9.130;2023-06-14T09:23:27;4.77;;;2.30;;
5684;SDS011;2865;53.114;9.130;2023-06-14T09:25:52;3.00;;;2.10;;
5684;SDS011;2865;53.114;9.130;2023-06-14T09:28:17;2.30;;;2.10;;
5684;SDS011;2865;53.114;9.130;2023-06-14T09:30:43;2.73;;;2.03;;
5684;SDS011;2865;53.114;9.130;2023-06-14T09:33:08;3.67;;;2.20;;
5684;SDS011;2865;53.114;9.130;2023-06-14T09:35:34;8.00;;;1.97;;
5684;SDS011;2865;53.114;9.130;2023-06-14T09:37:59;2.27;;;2.07;;
5684;SDS011;2865;53.114;9.130;2023-06-14T09:40:25;2.47;;;2.37;;
5684;SDS011;2865;53.114;9.130;2023-06-14T09:42:50;6.57;;;1.80;;
5684;SDS011;2865;53.114;9.130;2023-06-14T09:45:15;2.60;;;2.07;;
5684;SDS011;2865;53.114;9.130;2023-06-14T09:47:41;3.53;;;2.60;;
5684;SDS011;2865;53.114;9.130;2023-06-14T09:50:06;2.43;;;2.03;;
5684;SDS011;2865;53.114;9.130;2023-06-14T09:52:32;31.10;;;2.73;;
5684;SDS011;2865;53.114;9.130;2023-06-14T09:54:58;2.03;;;1.83;;
5684;SDS011;2865;53.114;9.130;2023-06-14T09:57:23;5.33;;;2.33;;
5684;SDS011;2865;53.114;9.130;2023-06-14T09:59:50;2.40;;;2.20;;
5684;SDS011;2865;53.114;9.130;2023-06-14T10:02:31;3.47;;;2.47;;
5684;SDS011;2865;53.114;9.130;2023-06-14T10:05:00;4.00;;;2.50;;
5684;SDS011;2865;53.114;9.130;2023-06-14T10:07:24;2.40;;;2.20;;
5684;SDS011;2865;53.114;9.130;2023-06-14T10:09:49;2.63;;;2.43;;
5684;SDS011;2865;53.114;9.130;2023-06-14T10:12:16;3.73;;;2.00;;
5684;SDS011;2865;53.114;9.130;2023-06-14T10:14:41;3.40;;;2.30;;
5684;SDS011;2865;53.114;9.130;2023-06-14T10:17:08;3.27;;;1.97;;
5684;SDS011;2865;53.114;9.130;2023-06-14T10:19:37;5.80;;;2.47;;
5684;SDS011;2865;53.114;9.130;2023-06-14T10:22:08;6.53;;;2.37;;
5684;SDS011;2865;53.114;9.130;2023-06-14T10:24:33;5.53;;;3.20;;
5684;SDS011;2865;53.114;9.130;2023-06-14T10:26:58;6.33;;;2.70;;
5684;SDS011;2865;53.114;9.130;2023-06-14T10:29:23;6.90;;;2.73;;
5684;SDS011;2865;53.114;9.130;2023-06-14T10:31:49;5.97;;;2.33;;
5684;SDS011;2865;53.114;9.130;2023-06-14T10:36:55;2.70;;;2.50;;
5684;SDS011;2865;53.114;9.130;2023-06-14T10:39:15;3.83;;;3.53;;
5684;SDS011;2865;53.114;9.130;2023-06-14T10:41:40;6.10;;;2.47;;
5684;SDS011;2865;53.114;9.130;2023-06-14T10:46:58;3.40;;;2.37;;
5684;SDS011;2865;53.114;9.130;2023-06-14T10:52:02;6.70;;;2.40;;
5684;SDS011;2865;53.114;9.130;2023-06-14T10:54:27;9.03;;;2.13;;
5684;SDS011;2865;53.114;9.130;2023-06-14T10:56:53;3.40;;;3.00;;
5684;SDS011;2865;53.114;9.130;2023-06-14T10:59:18;3.07;;;2.30;;
5684;SDS011;2865;53.114;9.130;2023-06-14T11:02:10;2.37;;;2.17;;
5684;SDS011;2865;53.114;9.130;2023-06-14T11:04:30;2.30;;;2.03;;
5684;SDS011;2865;53.114;9.130;2023-06-14T11:06:51;4.60;;;2.60;;
5684;SDS011;2865;53.114;9.130;2023-06-14T11:09:24;2.47;;;2.23;;
5684;SDS011;2865;53.114;9.130;2023-06-14T11:12:03;8.67;;;2.80;;
5684;SDS011;2865;53.114;9.130;2023-06-14T11:14:30;3.33;;;2.37;;
5684;SDS011;2865;53.114;9.130;2023-06-14T11:16:54;3.70;;;2.60;;
5684;SDS011;2865;53.114;9.130;2023-06-14T11:19:20;2.67;;;2.10;;
5684;SDS011;2865;53.114;9.130;2023-06-14T11:21:47;2.40;;;2.20;;
5684;SDS011;2865;53.114;9.130;2023-06-14T11:24:12;3.40;;;2.40;;
5684;SDS011;2865;53.114;9.130;2023-06-14T11:26:38;3.07;;;2.30;;
5684;SDS011;2865;53.114;9.130;2023-06-14T11:29:03;3.97;;;2.30;;
5684;SDS011;2865;53.114;9.130;2023-06-14T11:31:29;6.43;;;2.77;;
5684;SDS011;2865;53.114;9.130;2023-06-14T11:33:54;2.50;;;2.30;;
5684;SDS011;2865;53.114;9.130;2023-06-14T11:36:19;2.87;;;2.67;;
5684;SDS011;2865;53.114;9.130;2023-06-14T11:38:45;3.77;;;2.33;;
5684;SDS011;2865;53.114;9.130;2023-06-14T11:41:10;3.00;;;2.33;;
5684;SDS011;2865;53.114;9.130;2023-06-14T11:43:35;2.53;;;2.33;;
5684;SDS011;2865;53.114;9.130;2023-06-14T11:46:01;6.27;;;2.97;;
5684;SDS011;2865;53.114;9.130;2023-06-14T11:51:02;4.13;;;2.90;;
5684;SDS011;2865;53.114;9.130;2023-06-14T11:53:27;4.40;;;2.70;;
5684;SDS011;2865;53.114;9.130;2023-06-14T11:55:53;2.50;;;2.30;;
5684;SDS011;2865;53.114;9.130;2023-06-14T11:58:18;4.97;;;2.77;;
5684;SDS011;2865;53.114;9.130;2023-06-14T12:00:43;6.13;;;2.43;;
5684;SDS011;2865;53.114;9.130;2023-06-14T12:03:09;2.77;;;2.57;;
5684;SDS011;2865;53.114;9.130;2023-06-14T12:05:34;6.77;;;2.20;;
5684;SDS011;2865;53.114;9.130;2023-06-14T12:08:00;4.87;;;2.50;;
5684;SDS011;2865;53.114;9.130;2023-06-14T12:10:25;4.50;;;3.07;;
5684;SDS011;2865;53.114;9.130;2023-06-14T12:12:51;3.23;;;2.60;;
5684;SDS011;2865;53.114;9.130;2023-06-14T12:15:16;2.60;;;2.40;;
5684;SDS011;2865;53.114;9.130;2023-06-14T12:17:42;4.33;;;2.27;;
5684;SDS011;2865;53.114;9.130;2023-06-14T12:20:10;2.63;;;2.43;;
5684;SDS011;2865;53.114;9.130;2023-06-14T12:22:36;6.13;;;2.77;;
5684;SDS011;2865;53.114;9.130;2023-06-14T12:25:01;2.50;;;2.30;;
5684;SDS011;2865;53.114;9.130;2023-06-14T12:27:27;7.10;;;2.70;;
5684;SDS011;2865;53.114;9.130;2023-06-14T12:29:59;2.20;;;1.80;;
5684;SDS011;2865;53.114;9.130;2023-06-14T12:32:24;2.40;;;2.17;;
5684;SDS011;2865;53.114;9.130;2023-06-14T12:34:50;3.83;;;2.60;;
5684;SDS011;2865;53.114;9.130;2023-06-14T12:37:15;4.30;;;2.40;;
5684;SDS011;2865;53.114;9.130;2023-06-14T12:39:40;2.50;;;2.10;;
5684;SDS011;2865;53.114;9.130;2023-06-14T12:42:06;3.83;;;2.70;;
5684;SDS011;2865;53.114;9.130;2023-06-14T12:44:32;3.10;;;2.57;;
5684;SDS011;2865;53.114;9.130;2023-06-14T12:46:57;2.50;;;2.00;;
5684;SDS011;2865;53.114;9.130;2023-06-14T12:49:23;4.10;;;2.63;;
5684;SDS011;2865;53.114;9.130;2023-06-14T12:51:48;3.63;;;2.50;;
5684;SDS011;2865;53.114;9.130;2023-06-14T12:54:14;4.60;;;2.80;;
5684;SDS011;2865;53.114;9.130;2023-06-14T12:56:39;3.90;;;2.07;;
5684;SDS011;2865;53.114;9.130;2023-06-14T12:59:05;3.03;;;2.70;;
5684;SDS011;2865;53.114;9.130;2023-06-14T13:01:30;4.20;;;2.77;;
5684;SDS011;2865;53.114;9.130;2023-06-14T13:03:56;3.00;;;2.53;;
5684;SDS011;2865;53.114;9.130;2023-06-14T13:06:21;3.17;;;2.70;;
5684;SDS011;2865;53.114;9.130;2023-06-14T13:08:47;4.47;;;2.27;;
5684;SDS011;2865;53.114;9.130;2023-06-14T13:11:12;5.53;;;2.43;;
5684;SDS011;2865;53.114;9.130;2023-06-14T13:13:38;3.13;;;2.60;;
5684;SDS011;2865;53.114;9.130;2023-06-14T13:16:03;8.40;;;3.20;;
5684;SDS011;2865;53.114;9.130;2023-06-14T13:18:29;3.33;;;2.53;;
5684;SDS011;2865;53.114;9.130;2023-06-14T13:20:54;4.27;;;2.33;;
5684;SDS011;2865;53.114;9.130;2023-06-14T13:23:19;3.50;;;2.43;;
5684;SDS011;2865;53.114;9.130;2023-06-14T13:25:45;6.40;;;2.73;;
5684;SDS011;2865;53.114;9.130;2023-06-14T13:28:10;3.83;;;2.80;;
5684;SDS011;2865;53.114;9.130;2023-06-14T13:30:36;5.40;;;2.70;;
5684;SDS011;2865;53.114;9.130;2023-06-14T13:33:01;6.30;;;2.83;;
5684;SDS011;2865;53.114;9.130;2023-06-14T13:35:26;4.10;;;3.37;;
5684;SDS011;2865;53.114;9.130;2023-06-14T13:37:52;3.13;;;2.70;;
5684;SDS011;2865;53.114;9.130;2023-06-14T13:40:17;20.97;;;2.90;;
5684;SDS011;2865;53.114;9.130;2023-06-14T13:42:42;2.93;;;2.70;;
5684;SDS011;2865;53.114;9.130;2023-06-14T13:45:10;4.50;;;2.70;;
5684;SDS011;2865;53.114;9.130;2023-06-14T13:47:35;4.53;;;2.30;;
5684;SDS011;2865;53.114;9.130;2023-06-14T13:50:00;2.93;;;2.73;;
5684;SDS011;2865;53.114;9.130;2023-06-14T13:52:25;2.57;;;2.37;;
5684;SDS011;2865;53.114;9.130;2023-06-14T13:54:51;7.53;;;2.90;;
5684;SDS011;2865;53.114;9.130;2023-06-14T13:57:17;10.50;;;2.93;;
5684;SDS011;2865;53.114;9.130;2023-06-14T13:59:42;3.30;;;2.50;;
5684;SDS011;2865;53.114;9.130;2023-06-14T14:02:09;4.63;;;2.57;;
5684;SDS011;2865;53.114;9.130;2023-06-14T14:04:34;2.93;;;2.70;;
5684;SDS011;2865;53.114;9.130;2023-06-14T14:07:01;3.53;;;2.73;;
5684;SDS011;2865;53.114;9.130;2023-06-14T14:09:26;4.50;;;2.40;;
5684;SDS011;2865;53.114;9.130;2023-06-14T14:11:51;3.50;;;2.67;;
5684;SDS011;2865;53.114;9.130;2023-06-14T14:14:16;4.27;;;2.80;;
5684;SDS011;2865;53.114;9.130;2023-06-14T14:16:42;5.00;;;2.70;;
5684;SDS011;2865;53.114;9.130;2023-06-14T14:19:08;3.77;;;2.70;;
5684;SDS011;2865;53.114;9.130;2023-06-14T14:21:33;4.47;;;3.07;;
5684;SDS011;2865;53.114;9.130;2023-06-14T14:23:58;4.43;;;2.50;;
5684;SDS011;2865;53.114;9.130;2023-06-14T14:26:24;3.53;;;3.00;;
5684;SDS011;2865;53.114;9.130;2023-06-14T14:28:49;8.23;;;2.60;;
5684;SDS011;2865;53.114;9.130;2023-06-14T14:31:15;2.53;;;2.33;;
5684;SDS011;2865;53.114;9.130;2023-06-14T14:33:40;4.60;;;2.80;;
5684;SDS011;2865;53.114;9.130;2023-06-14T14:36:05;6.73;;;2.40;;
5684;SDS011;2865;53.114;9.130;2023-06-14T14:38:31;5.07;;;2.60;;
5684;SDS011;2865;53.114;9.130;2023-06-14T14:40:56;3.53;;;2.87;;
5684;SDS011;2865;53.114;9.130;2023-06-14T14:43:22;6.47;;;2.97;;
5684;SDS011;2865;53.114;9.130;2023-06-14T14:45:47;6.97;;;4.33;;
5684;SDS011;2865;53.114;9.130;2023-06-14T14:48:12;3.20;;;2.77;;
5684;SDS011;2865;53.114;9.130;2023-06-14T14:50:38;4.70;;;3.20;;
5684;SDS011;2865;53.114;9.130;2023-06-14T14:53:03;9.77;;;3.00;;
5684;SDS011;2865;53.114;9.130;2023-06-14T14:55:28;4.80;;;3.60;;
5684;SDS011;2865;53.114;9.130;2023-06-14T14:57:54;3.80;;;3.00;;
5684;SDS011;2865;53.114;9.130;2023-06-14T15:00:19;4.67;;;2.23;;
5684;SDS011;2865;53.114;9.130;2023-06-14T15:02:45;4.87;;;3.23;;
5684;SDS011;2865;53.114;9.130;2023-06-14T15:05:11;5.73;;;3.40;;
5684;SDS011;2865;53.114;9.130;2023-06-14T15:07:36;5.10;;;2.93;;
5684;SDS011;2865;53.114;9.130;2023-06-14T15:10:02;9.30;;;2.73;;
5684;SDS011;2865;53.114;9.130;2023-06-14T15:12:27;3.60;;;2.40;;
5684;SDS011;2865;53.114;9.130;2023-06-14T15:14:52;4.10;;;2.83;;
5684;SDS011;2865;53.114;9.130;2023-06-14T15:17:18;4.03;;;3.23;;